createdAt,value
2023-07-20T00:03:18.354Z,15.91
2023-07-20T00:05:26.314Z,15.88
2023-07-20T00:07:33.935Z,15.85
2023-07-20T00:09:39.248Z,15.94
2023-07-20T00:11:44.563Z,16.05
2023-07-20T00:13:49.491Z,16.12
2023-07-20T00:15:55.205Z,16.11
2023-07-20T00:18:00.073Z,16.11
2023-07-20T00:20:06.553Z,16.03
2023-07-20T00:22:12.627Z,15.95
2023-07-20T00:24:20.369Z,15.94
2023-07-20T00:26:25.879Z,15.99
2023-07-20T00:28:28.625Z,15.91
2023-07-20T00:30:33.884Z,15.95
2023-07-20T00:32:39.087Z,15.93
2023-07-20T00:34:42.300Z,15.84
2023-07-20T00:36:47.579Z,15.78
2023-07-20T00:38:52.464Z,15.72
2023-07-20T00:41:00.129Z,15.70
2023-07-20T00:43:05.103Z,15.59
2023-07-20T00:45:11.649Z,15.62
2023-07-20T00:47:17.085Z,15.57
2023-07-20T00:49:23.165Z,15.54
2023-07-20T00:51:29.519Z,15.55
2023-07-20T00:53:34.878Z,15.42
2023-07-20T00:55:44.587Z,15.37
2023-07-20T00:57:52.285Z,15.40
2023-07-20T01:00:00.143Z,15.28
2023-07-20T01:02:05.300Z,15.22
2023-07-20T01:04:10.765Z,15.18
2023-07-20T01:06:31.935Z,15.18
2023-07-20T01:08:43.255Z,15.12
2023-07-20T01:10:55.072Z,15.04
2023-07-20T01:13:06.412Z,15.02
2023-07-20T01:15:13.338Z,14.97
2023-07-20T01:17:18.257Z,14.98
2023-07-20T01:19:23.395Z,14.99
2023-07-20T01:21:34.824Z,14.96
2023-07-20T01:24:09.096Z,14.98
2023-07-20T01:26:40.999Z,15.01
2023-07-20T01:29:18.824Z,14.87
2023-07-20T01:31:30.150Z,14.80
2023-07-20T01:33:34.803Z,14.76
2023-07-20T01:35:42.541Z,14.72
2023-07-20T01:37:50.875Z,14.61
2023-07-20T01:40:01.426Z,14.57
2023-07-20T01:42:07.391Z,14.54
2023-07-20T01:44:13.672Z,14.50
2023-07-20T01:46:19.037Z,14.51
2023-07-20T01:48:26.728Z,14.46
2023-07-20T01:50:35.317Z,14.41
2023-07-20T01:52:44.388Z,14.44
2023-07-20T01:54:49.541Z,14.36
2023-07-20T01:56:54.515Z,14.35
2023-07-20T01:58:56.960Z,14.39
2023-07-20T02:01:05.362Z,14.43
2023-07-20T02:03:13.668Z,14.44
2023-07-20T02:05:21.443Z,14.41
2023-07-20T02:07:26.610Z,14.38
2023-07-20T02:09:34.989Z,14.36
2023-07-20T02:11:42.070Z,14.39
2023-07-20T02:13:47.399Z,14.38
2023-07-20T02:15:52.977Z,14.36
2023-07-20T02:17:58.249Z,14.40
2023-07-20T02:20:03.419Z,14.43
2023-07-20T02:22:12.039Z,14.38
2023-07-20T02:24:17.577Z,14.43
2023-07-20T02:26:22.855Z,14.44
2023-07-20T02:28:28.076Z,14.46
2023-07-20T02:30:33.124Z,14.43
2023-07-20T02:32:39.869Z,14.38
2023-07-20T02:34:45.125Z,14.37
2023-07-20T02:36:50.389Z,14.36
2023-07-20T02:38:58.205Z,14.33
2023-07-20T02:41:04.096Z,14.32
2023-07-20T02:43:09.188Z,14.30
2023-07-20T02:45:13.624Z,14.31
2023-07-20T02:47:18.575Z,14.26
2023-07-20T02:49:23.446Z,14.26
2023-07-20T02:51:28.949Z,14.28
2023-07-20T02:53:33.866Z,14.22
2023-07-20T02:55:42.552Z,14.21
2023-07-20T02:57:47.673Z,14.18
2023-07-20T02:59:52.586Z,14.18
2023-07-20T03:02:01.676Z,14.20
2023-07-20T03:04:11.799Z,14.20
2023-07-20T03:06:17.251Z,14.22
2023-07-20T03:08:22.385Z,14.17
2023-07-20T03:10:28.380Z,14.19
2023-07-20T03:12:36.022Z,14.22
2023-07-20T03:14:41.838Z,14.16
2023-07-20T03:16:47.829Z,14.16
2023-07-20T03:18:53.013Z,14.12
2023-07-20T03:20:55.377Z,14.12
2023-07-20T03:23:00.573Z,14.11
2023-07-20T03:25:05.860Z,14.08
2023-07-20T03:27:12.080Z,14.04
2023-07-20T03:29:20.031Z,13.98
2023-07-20T03:31:25.173Z,13.97
2023-07-20T03:33:32.744Z,13.89
2023-07-20T03:35:37.710Z,13.78
2023-07-20T03:37:43.869Z,13.74
2023-07-20T03:39:48.909Z,13.72
2023-07-20T03:41:53.847Z,13.71
2023-07-20T03:43:59.433Z,13.67
2023-07-20T03:46:08.457Z,13.64
2023-07-20T03:48:13.588Z,13.65
2023-07-20T03:50:19.139Z,13.64
2023-07-20T03:52:24.679Z,13.67
2023-07-20T03:54:29.519Z,13.71
2023-07-20T03:56:37.215Z,13.72
2023-07-20T03:58:42.490Z,13.72
2023-07-20T04:00:51.634Z,13.74
2023-07-20T04:03:01.627Z,13.74
2023-07-20T04:05:10.054Z,13.74
2023-07-20T04:07:16.462Z,13.77
2023-07-20T04:09:21.578Z,13.78
2023-07-20T04:11:26.506Z,13.79
2023-07-20T04:13:34.766Z,13.80
2023-07-20T04:15:40.113Z,13.82
2023-07-20T04:17:46.148Z,13.81
2023-07-20T04:19:54.182Z,13.84
2023-07-20T04:21:59.910Z,13.85
2023-07-20T04:24:06.380Z,13.82
2023-07-20T04:26:13.910Z,13.86
2023-07-20T04:28:18.866Z,13.90
2023-07-20T04:30:24.671Z,13.94
2023-07-20T04:32:27.149Z,13.95
2023-07-20T04:34:33.087Z,13.94
2023-07-20T04:36:40.780Z,13.96
2023-07-20T04:38:46.959Z,14.00
2023-07-20T04:40:53.305Z,14.05
2023-07-20T04:42:58.202Z,14.16
2023-07-20T04:45:03.153Z,14.24
2023-07-20T04:47:09.925Z,14.32
2023-07-20T04:49:16.527Z,14.39
2023-07-20T04:51:22.287Z,14.41
2023-07-20T04:53:29.987Z,14.52
2023-07-20T04:55:35.121Z,14.52
2023-07-20T04:57:40.453Z,14.58
2023-07-20T04:59:49.163Z,14.58
2023-07-20T05:01:54.214Z,14.54
2023-07-20T05:03:59.592Z,14.53
2023-07-20T05:06:04.808Z,14.53
2023-07-20T05:08:10.528Z,14.61
2023-07-20T05:10:18.198Z,14.71
2023-07-20T05:12:23.133Z,14.75
2023-07-20T05:14:27.963Z,14.84
2023-07-20T05:16:32.986Z,14.87
2023-07-20T05:18:35.999Z,14.93
2023-07-20T05:20:41.538Z,14.96
2023-07-20T05:22:46.204Z,15.04
2023-07-20T05:24:51.338Z,15.07
2023-07-20T05:27:01.450Z,15.11
2023-07-20T05:29:06.548Z,15.10
2023-07-20T05:31:11.884Z,15.14
2023-07-20T05:33:17.262Z,15.10
2023-07-20T05:35:22.428Z,15.18
2023-07-20T05:37:29.168Z,15.28
2023-07-20T05:39:38.477Z,15.33
2023-07-20T05:41:45.637Z,15.43
2023-07-20T05:43:50.785Z,15.46
2023-07-20T05:45:55.838Z,15.61
2023-07-20T05:48:00.829Z,16.42
2023-07-20T05:50:07.766Z,16.79
2023-07-20T05:52:10.320Z,17.14
2023-07-20T05:54:16.092Z,17.33
2023-07-20T05:56:21.355Z,17.34
2023-07-20T05:58:27.088Z,17.67
2023-07-20T06:00:34.803Z,17.87
2023-07-20T06:02:40.396Z,18.21
2023-07-20T06:04:47.083Z,18.42
2023-07-20T06:06:52.155Z,18.59
2023-07-20T06:08:57.362Z,18.41
2023-07-20T06:11:02.824Z,18.69
2023-07-20T06:13:07.662Z,18.79
2023-07-20T06:15:29.928Z,18.97
2023-07-20T06:17:40.504Z,19.13
2023-07-20T06:19:49.574Z,19.32
2023-07-20T06:21:54.743Z,19.43
2023-07-20T06:24:00.182Z,19.03
2023-07-20T06:26:05.682Z,18.51
2023-07-20T06:28:10.592Z,18.76
2023-07-20T06:30:17.760Z,18.53
2023-07-20T06:32:22.734Z,18.29
2023-07-20T06:34:30.776Z,18.93
2023-07-20T06:36:36.545Z,19.54
2023-07-20T06:38:41.711Z,20.18
2023-07-20T06:40:48.085Z,20.06
2023-07-20T06:45:04.660Z,20.48
2023-07-20T06:47:12.801Z,20.74
2023-07-20T06:49:31.662Z,20.71
2023-07-20T06:51:36.563Z,20.75
2023-07-20T06:53:41.629Z,21.05
2023-07-20T06:55:49.687Z,21.09
2023-07-20T06:57:59.379Z,21.18
2023-07-20T07:00:05.556Z,20.70
2023-07-20T07:04:18.909Z,21.51
2023-07-20T07:06:26.960Z,21.52
2023-07-20T07:08:35.054Z,21.46
2023-07-20T07:10:40.506Z,21.57
2023-07-20T07:12:45.567Z,21.62
2023-07-20T07:14:52.086Z,21.14
2023-07-20T07:17:04.378Z,22.02
2023-07-20T07:19:13.111Z,21.98
2023-07-20T07:21:18.448Z,22.18
2023-07-20T07:23:26.430Z,22.18
2023-07-20T07:25:32.631Z,21.80
2023-07-20T07:27:37.653Z,22.17
2023-07-20T07:29:45.486Z,21.98
2023-07-20T07:31:50.516Z,22.00
2023-07-20T07:34:02.380Z,22.42
2023-07-20T07:36:07.928Z,22.35
2023-07-20T07:38:26.781Z,22.39
2023-07-20T07:40:40.934Z,21.89
2023-07-20T07:42:46.094Z,21.60
2023-07-20T07:44:51.419Z,21.10
2023-07-20T07:46:56.466Z,20.74
2023-07-20T07:49:05.216Z,20.87
2023-07-20T07:51:13.262Z,20.71
2023-07-20T07:53:18.266Z,20.70
2023-07-20T07:55:23.223Z,20.77
2023-07-20T07:57:30.784Z,20.55
2023-07-20T07:59:38.188Z,21.07
2023-07-20T08:01:44.916Z,21.77
2023-07-20T08:03:50.711Z,22.38
2023-07-20T08:06:00.339Z,22.91
2023-07-20T08:08:05.442Z,23.28
2023-07-20T08:10:13.031Z,23.20
2023-07-20T08:12:19.954Z,22.09
2023-07-20T08:14:28.866Z,21.64
2023-07-20T08:16:34.017Z,20.53
2023-07-20T08:18:39.597Z,20.34
2023-07-20T08:20:48.170Z,19.47
2023-07-20T08:22:53.399Z,19.70
2023-07-20T08:24:59.722Z,19.28
2023-07-20T08:27:04.762Z,18.78
2023-07-20T08:29:13.074Z,18.49
2023-07-20T08:31:21.980Z,18.67
2023-07-20T08:33:30.791Z,18.54
2023-07-20T08:35:36.152Z,18.12
2023-07-20T08:37:38.725Z,18.66
2023-07-20T08:39:46.143Z,19.66
2023-07-20T08:41:51.697Z,20.23
2023-07-20T08:44:01.178Z,20.72
2023-07-20T08:46:07.649Z,20.68
2023-07-20T08:48:17.034Z,21.41
2023-07-20T08:50:24.008Z,21.95
2023-07-20T08:52:36.137Z,22.28
2023-07-20T08:54:43.412Z,22.53
2023-07-20T08:56:50.878Z,22.23
2023-07-20T08:58:58.795Z,22.62
2023-07-20T09:01:04.385Z,23.10
2023-07-20T09:03:11.293Z,23.59
2023-07-20T09:05:19.583Z,23.64
2023-07-20T09:07:26.737Z,24.29
2023-07-20T09:09:34.648Z,24.06
2023-07-20T09:11:39.460Z,24.34
2023-07-20T09:13:44.467Z,23.77
2023-07-20T09:15:57.650Z,24.38
2023-07-20T09:18:06.684Z,24.39
2023-07-20T09:20:13.161Z,24.38
2023-07-20T09:22:21.396Z,23.75
2023-07-20T09:24:26.738Z,23.34
2023-07-20T09:26:32.670Z,23.54
2023-07-20T09:28:48.048Z,23.75
2023-07-20T09:30:54.555Z,24.02
2023-07-20T09:33:00.250Z,23.41
2023-07-20T09:37:14.240Z,23.29
2023-07-20T09:43:38.714Z,24.68
2023-07-20T09:48:35.173Z,23.79
2023-07-20T09:54:33.724Z,22.06
2023-07-20T09:56:43.395Z,21.63
2023-07-20T09:58:50.028Z,21.72
2023-07-20T10:01:01.767Z,21.61
2023-07-20T10:03:08.120Z,21.48
2023-07-20T10:05:17.382Z,21.59
2023-07-20T10:07:25.005Z,21.72
2023-07-20T10:09:37.840Z,22.09
2023-07-20T10:11:44.438Z,21.87
2023-07-20T10:13:56.709Z,22.10
2023-07-20T10:16:09.584Z,23.22
2023-07-20T10:18:14.666Z,23.93
2023-07-20T10:20:23.776Z,24.53
2023-07-20T10:22:29.023Z,23.92
2023-07-20T10:24:38.678Z,24.10
2023-07-20T10:26:42.473Z,22.93
2023-07-20T10:28:48.824Z,23.45
2023-07-20T10:30:54.621Z,22.40
2023-07-20T10:32:59.782Z,21.88
2023-07-20T10:35:04.721Z,21.89
2023-07-20T10:37:10.497Z,22.14
2023-07-20T10:39:29.243Z,22.34
2023-07-20T10:41:46.501Z,22.88
2023-07-20T10:43:49.636Z,23.09
2023-07-20T10:45:56.130Z,23.57
2023-07-20T10:47:58.741Z,23.48
2023-07-20T10:50:06.462Z,22.87
2023-07-20T10:52:17.779Z,22.28
2023-07-20T10:54:39.505Z,23.54
2023-07-20T10:56:48.690Z,22.78
2023-07-20T10:58:51.047Z,22.82
2023-07-20T11:01:04.668Z,23.66
2023-07-20T11:03:10.475Z,23.11
2023-07-20T11:05:36.872Z,22.89
2023-07-20T11:07:43.109Z,22.67
2023-07-20T11:09:49.823Z,24.05
2023-07-20T11:12:15.423Z,24.39
2023-07-20T11:14:27.969Z,23.91
2023-07-20T11:16:44.809Z,25.16
2023-07-20T11:18:48.064Z,23.83
2023-07-20T11:20:55.018Z,22.84
2023-07-20T11:23:01.184Z,22.50
2023-07-20T11:25:06.722Z,21.86
2023-07-20T11:27:14.342Z,21.94
2023-07-20T11:29:29.818Z,22.67
2023-07-20T11:31:40.143Z,23.74
2023-07-20T11:33:45.078Z,23.43
2023-07-20T11:35:52.337Z,24.26
2023-07-20T11:37:57.604Z,25.25
2023-07-20T11:40:05.444Z,25.01
2023-07-20T11:42:14.101Z,23.90
2023-07-20T11:44:45.617Z,24.44
2023-07-20T11:46:50.836Z,24.55
2023-07-20T11:49:00.849Z,24.01
2023-07-20T11:51:06.792Z,23.53
2023-07-20T11:53:12.724Z,23.54
2023-07-20T11:55:19.053Z,23.57
2023-07-20T11:57:28.260Z,23.53
2023-07-20T11:59:33.543Z,23.43
2023-07-20T12:01:39.169Z,22.80
2023-07-20T12:03:44.310Z,22.84
2023-07-20T12:06:01.200Z,23.70
2023-07-20T12:08:07.858Z,24.87
2023-07-20T12:10:17.064Z,25.54
2023-07-20T12:12:23.358Z,25.92
2023-07-20T12:14:31.136Z,26.13
2023-07-20T12:16:36.235Z,26.35
2023-07-20T12:18:38.678Z,26.61
2023-07-20T12:20:44.621Z,26.06
2023-07-20T12:22:47.479Z,25.67
2023-07-20T12:24:56.697Z,26.10
2023-07-20T12:27:02.665Z,26.62
2023-07-20T12:29:08.027Z,24.92
2023-07-20T12:31:15.734Z,23.90
2023-07-20T12:33:20.774Z,24.02
2023-07-20T12:35:25.978Z,23.88
2023-07-20T12:37:31.010Z,23.84
2023-07-20T12:39:36.406Z,24.35
2023-07-20T12:41:41.282Z,24.49
2023-07-20T12:43:48.727Z,24.48
2023-07-20T12:45:51.293Z,23.79
2023-07-20T12:47:59.656Z,24.19
2023-07-20T12:50:05.459Z,25.26
2023-07-20T12:52:12.840Z,25.32
2023-07-20T12:54:17.963Z,24.84
2023-07-20T12:58:31.266Z,23.94
2023-07-20T13:00:36.230Z,23.81
2023-07-20T13:05:05.022Z,24.26
2023-07-20T13:09:22.627Z,23.72
2023-07-20T13:11:28.275Z,23.07
2023-07-20T13:13:35.641Z,23.67
2023-07-20T13:15:50.711Z,23.71
2023-07-20T13:17:55.885Z,23.58
2023-07-20T13:20:06.290Z,24.20
2023-07-20T13:22:11.172Z,23.32
2023-07-20T13:24:16.900Z,24.41
2023-07-20T13:26:22.285Z,25.53
2023-07-20T13:28:27.274Z,25.40
2023-07-20T13:30:34.276Z,24.52
2023-07-20T13:32:41.516Z,25.18
2023-07-20T13:34:50.001Z,25.18
2023-07-20T13:36:57.671Z,24.73
2023-07-20T13:39:03.329Z,24.79
2023-07-20T13:41:08.247Z,24.48
2023-07-20T13:43:13.518Z,23.64
2023-07-20T13:45:18.937Z,24.41
2023-07-20T13:47:24.527Z,24.42
2023-07-20T13:49:26.953Z,23.86
2023-07-20T13:51:31.840Z,23.96
2023-07-20T13:57:56.521Z,24.27
2023-07-20T14:00:02.331Z,24.81
2023-07-20T14:04:16.076Z,24.47
2023-07-20T14:06:24.126Z,24.17
2023-07-20T14:08:31.506Z,23.98
2023-07-20T14:12:49.770Z,24.32
2023-07-20T14:14:54.760Z,24.13
2023-07-20T14:17:00.230Z,24.37
2023-07-20T14:19:06.479Z,24.05
2023-07-20T14:21:09.867Z,23.37
2023-07-20T14:23:14.840Z,24.07
2023-07-20T14:25:22.719Z,23.73
2023-07-20T14:27:30.598Z,23.36
2023-07-20T14:29:37.801Z,23.21
2023-07-20T14:31:42.785Z,23.12
2023-07-20T14:33:47.882Z,23.45
2023-07-20T14:35:52.919Z,23.49
2023-07-20T14:37:58.205Z,23.98
2023-07-20T14:40:03.857Z,24.66
2023-07-20T14:42:06.876Z,24.53
2023-07-20T14:44:14.453Z,23.61
2023-07-20T14:46:21.513Z,24.02
2023-07-20T14:48:27.112Z,23.47
2023-07-20T14:50:32.401Z,23.49
2023-07-20T14:52:48.580Z,23.36
2023-07-20T14:54:54.200Z,23.30
2023-07-20T14:56:59.322Z,23.51
2023-07-20T14:59:01.930Z,23.26
2023-07-20T15:01:09.833Z,22.62
2023-07-20T15:03:14.893Z,22.63
2023-07-20T15:05:28.224Z,23.34
2023-07-20T15:07:33.444Z,22.57
2023-07-20T15:09:38.865Z,22.56
2023-07-20T15:11:44.892Z,22.56
2023-07-20T15:13:49.764Z,22.70
2023-07-20T15:15:51.997Z,22.58
2023-07-20T15:17:59.813Z,22.85
2023-07-20T15:20:06.077Z,22.78
2023-07-20T15:22:11.737Z,22.33
2023-07-20T15:24:17.681Z,22.45
2023-07-20T15:26:23.031Z,22.09
2023-07-20T15:28:29.376Z,21.64
2023-07-20T15:34:51.969Z,21.76
2023-07-20T15:36:56.948Z,22.33
2023-07-20T15:39:04.472Z,22.55
2023-07-20T15:41:09.560Z,22.23
2023-07-20T15:45:22.558Z,24.27
2023-07-20T15:47:27.603Z,23.80
2023-07-20T15:49:34.812Z,23.78
2023-07-20T15:51:43.192Z,23.60
2023-07-20T15:53:48.996Z,23.97
2023-07-20T15:55:58.963Z,23.32
2023-07-20T15:58:04.090Z,23.49
2023-07-20T16:00:11.467Z,24.12
2023-07-20T16:02:17.061Z,23.86
2023-07-20T16:04:19.388Z,24.44
2023-07-20T16:06:24.615Z,24.65
2023-07-20T16:08:33.140Z,24.34
2023-07-20T16:10:38.023Z,23.91
2023-07-20T16:12:43.414Z,23.49
2023-07-20T16:16:56.358Z,24.96
2023-07-20T16:19:01.580Z,24.38
2023-07-20T16:21:06.694Z,22.82
2023-07-20T16:23:11.545Z,22.98
2023-07-20T16:25:20.737Z,23.41
2023-07-20T16:27:25.922Z,23.03
2023-07-20T16:29:30.713Z,22.51
2023-07-20T16:31:36.005Z,22.99
2023-07-20T16:33:46.155Z,23.02
2023-07-20T16:35:51.662Z,22.55
2023-07-20T16:40:31.848Z,23.27
2023-07-20T16:44:45.857Z,22.79
2023-07-20T16:49:00.483Z,24.13
2023-07-20T16:51:06.407Z,22.73
2023-07-20T16:53:11.386Z,22.60
2023-07-20T16:55:18.334Z,23.27
2023-07-20T16:57:24.737Z,23.64
2023-07-20T16:59:37.987Z,23.96
2023-07-20T17:01:43.032Z,23.18
2023-07-20T17:03:48.142Z,23.64
2023-07-20T17:05:50.810Z,24.04
2023-07-20T17:07:56.780Z,24.33
2023-07-20T17:10:02.163Z,23.26
2023-07-20T17:12:07.765Z,22.19
2023-07-20T17:14:14.233Z,22.05
2023-07-20T17:16:22.221Z,21.78
2023-07-20T17:18:27.154Z,21.78
2023-07-20T17:22:40.900Z,22.02
2023-07-20T17:27:18.368Z,21.42
2023-07-20T17:29:19.003Z,21.75
2023-07-20T17:31:30.039Z,22.08
2023-07-20T17:33:35.097Z,22.32
2023-07-20T17:35:40.600Z,22.24
2023-07-20T17:43:06.647Z,21.95
2023-07-20T17:44:29.734Z,21.64
2023-07-20T17:48:48.417Z,21.23
2023-07-20T17:50:53.690Z,21.11
2023-07-20T17:52:58.878Z,21.21
2023-07-20T17:55:01.131Z,21.04
2023-07-20T17:57:06.471Z,21.29
2023-07-20T17:59:11.300Z,20.91
2023-07-20T18:01:17.132Z,20.79
2023-07-20T18:03:22.208Z,21.10
2023-07-20T18:05:27.707Z,20.99
2023-07-20T18:07:32.887Z,21.11
2023-07-20T18:09:37.876Z,21.21
2023-07-20T18:11:43.104Z,20.80
2023-07-20T18:13:48.764Z,20.84
2023-07-20T18:16:01.901Z,20.86
2023-07-20T18:18:09.341Z,20.36
2023-07-20T18:20:17.397Z,20.17
2023-07-20T18:22:19.981Z,19.85
2023-07-20T18:24:24.695Z,19.98
2023-07-20T18:26:29.699Z,19.85
2023-07-20T18:28:34.881Z,20.14
2023-07-20T18:30:40.479Z,20.05
2023-07-20T18:32:46.399Z,19.80
2023-07-20T18:34:51.606Z,19.80
2023-07-20T18:37:02.224Z,19.84
2023-07-20T18:39:07.493Z,19.76
2023-07-20T18:41:13.931Z,19.38
2023-07-20T18:43:21.737Z,19.42
2023-07-20T18:45:27.941Z,19.14
2023-07-20T18:47:34.312Z,19.18
2023-07-20T18:49:39.428Z,18.95
2023-07-20T18:51:44.512Z,18.82
2023-07-20T18:53:54.464Z,18.72
2023-07-20T18:55:59.693Z,18.89
2023-07-20T18:58:04.916Z,18.81
2023-07-20T19:00:11.336Z,18.68
2023-07-20T19:02:16.940Z,18.73
2023-07-20T19:04:23.438Z,18.80
2023-07-20T19:06:28.826Z,19.02
2023-07-20T19:08:36.149Z,19.12
2023-07-20T19:12:53.513Z,18.89
2023-07-20T19:14:58.790Z,19.01
2023-07-20T19:17:03.678Z,19.16
2023-07-20T19:19:09.440Z,19.03
2023-07-20T19:21:15.618Z,19.02
2023-07-20T19:23:20.535Z,18.83
2023-07-20T19:25:26.250Z,18.83
2023-07-20T19:27:33.830Z,18.51
2023-07-20T19:29:39.426Z,18.63
2023-07-20T19:31:49.887Z,18.47
2023-07-20T19:33:54.994Z,18.24
2023-07-20T19:35:58.150Z,18.23
2023-07-20T19:38:05.202Z,18.07
2023-07-20T19:40:13.030Z,17.91
2023-07-20T19:42:18.241Z,17.75
2023-07-20T19:44:26.072Z,17.81
2023-07-20T19:46:31.196Z,17.89
2023-07-20T19:48:38.074Z,17.76
2023-07-20T19:50:44.133Z,17.73
2023-07-20T19:54:56.928Z,17.63
2023-07-20T19:57:39.781Z,17.66
2023-07-20T19:59:32.707Z,17.53
2023-07-20T20:03:48.770Z,17.66
2023-07-20T20:05:53.789Z,17.51
2023-07-20T20:08:00.655Z,17.32
2023-07-20T20:10:06.197Z,17.19
2023-07-20T20:12:14.085Z,17.21
2023-07-20T20:14:19.178Z,17.26
2023-07-20T20:16:27.101Z,17.37
2023-07-20T20:18:34.092Z,17.24
2023-07-20T20:20:43.056Z,17.23
2023-07-20T20:22:47.881Z,17.31
2023-07-20T20:24:53.191Z,17.32
2023-07-20T20:26:58.179Z,17.34
2023-07-20T20:29:03.265Z,17.31
2023-07-20T20:31:08.259Z,17.24
2023-07-20T20:33:16.025Z,17.19
2023-07-20T20:35:21.164Z,17.13
2023-07-20T20:37:26.989Z,17.08
2023-07-20T20:39:32.518Z,17.05
2023-07-20T20:41:45.513Z,17.02
2023-07-20T20:43:50.792Z,16.98
2023-07-20T20:45:55.929Z,16.93
2023-07-20T20:48:00.505Z,16.99
2023-07-20T20:50:10.283Z,16.98
2023-07-20T20:52:12.966Z,17.01
2023-07-20T20:54:17.905Z,17.08
2023-07-20T20:56:23.256Z,17.11
2023-07-20T20:58:29.132Z,17.14
2023-07-20T21:00:35.114Z,17.19
2023-07-20T21:02:41.824Z,17.20
2023-07-20T21:04:51.038Z,17.26
2023-07-20T21:06:59.492Z,17.32
2023-07-20T21:09:04.478Z,17.41
2023-07-20T21:11:09.763Z,17.38
2023-07-20T21:13:17.630Z,17.41
2023-07-20T21:15:22.922Z,17.32
2023-07-20T21:17:29.241Z,17.18
2023-07-20T21:19:34.448Z,17.21
2023-07-20T21:21:39.601Z,17.15
2023-07-20T21:23:48.525Z,17.20
2023-07-20T21:25:53.596Z,17.16
2023-07-20T21:27:59.161Z,17.07
2023-07-20T21:30:04.428Z,17.08
2023-07-20T21:32:11.413Z,17.13
2023-07-20T21:34:14.524Z,17.06
2023-07-20T21:36:23.077Z,16.97
2023-07-20T21:38:31.996Z,16.85
2023-07-20T21:40:39.878Z,16.93
2023-07-20T21:42:44.777Z,17.01
2023-07-20T21:44:49.804Z,16.97
2023-07-20T21:46:55.314Z,17.00
2023-07-20T21:49:01.426Z,16.92
2023-07-20T21:51:06.997Z,16.92
2023-07-20T21:53:12.060Z,16.84
2023-07-20T21:55:18.617Z,16.74
2023-07-20T21:57:26.251Z,16.77
2023-07-20T21:59:31.257Z,16.83
2023-07-20T22:03:44.932Z,16.92
2023-07-20T22:05:53.424Z,16.91
2023-07-20T22:08:03.052Z,16.87
2023-07-20T22:10:09.382Z,16.86
2023-07-20T22:12:15.798Z,16.86
2023-07-20T22:14:23.505Z,16.74
2023-07-20T22:16:32.760Z,16.80
2023-07-20T22:18:38.203Z,16.71
2023-07-20T22:20:43.294Z,16.70
2023-07-20T22:22:48.546Z,16.66
2023-07-20T22:24:53.999Z,16.60
2023-07-20T22:27:01.263Z,16.63
2023-07-20T22:29:06.411Z,16.69
2023-07-20T22:31:14.530Z,16.67
2023-07-20T22:33:19.819Z,16.66
2023-07-20T22:35:25.041Z,16.65
2023-07-20T22:37:29.978Z,16.72
2023-07-20T22:39:37.860Z,16.75
2023-07-20T22:41:43.035Z,16.75
2023-07-20T22:43:47.807Z,16.78
2023-07-20T22:45:53.106Z,16.75
2023-07-20T22:48:00.636Z,16.72
2023-07-20T22:50:09.847Z,16.72
2023-07-20T22:52:15.684Z,16.73
2023-07-20T22:54:21.312Z,16.75
2023-07-20T22:56:26.650Z,16.72
2023-07-20T22:58:33.309Z,16.72
2023-07-20T23:00:38.899Z,16.67
2023-07-20T23:02:45.422Z,16.62
2023-07-20T23:04:54.692Z,16.59
2023-07-20T23:07:02.608Z,16.58
2023-07-20T23:09:07.924Z,16.53
2023-07-20T23:11:14.047Z,16.49
2023-07-20T23:13:18.962Z,16.42
2023-07-20T23:15:24.113Z,16.45
2023-07-20T23:17:26.973Z,16.40
2023-07-20T23:19:33.313Z,16.40
2023-07-20T23:21:41.800Z,16.41
2023-07-20T23:23:47.870Z,16.39
2023-07-20T23:25:56.292Z,16.41
2023-07-20T23:28:01.466Z,16.42
2023-07-20T23:30:06.622Z,16.45
2023-07-20T23:32:13.067Z,16.42
2023-07-20T23:34:18.218Z,16.41
2023-07-20T23:36:23.184Z,16.39
2023-07-20T23:38:30.875Z,16.37
2023-07-20T23:40:38.038Z,16.37
2023-07-20T23:42:44.969Z,16.35
2023-07-20T23:44:50.187Z,16.36
2023-07-20T23:46:55.370Z,16.39
2023-07-20T23:49:01.990Z,16.40
2023-07-20T23:51:04.502Z,16.34
2023-07-20T23:53:09.578Z,16.33
2023-07-20T23:55:14.837Z,16.34
2023-07-20T23:57:20.248Z,16.30
2023-07-20T23:59:25.247Z,16.28
